createdAt,value
2018-12-21T00:00:34.389Z,1006.63
2018-12-21T00:02:27.332Z,1006.62
2018-12-21T00:03:27.356Z,1006.61
2018-12-21T00:05:20.314Z,1006.56
2018-12-21T00:06:20.332Z,1006.60
2018-12-21T00:08:13.325Z,1006.58
2018-12-21T00:09:13.306Z,1006.56
2018-12-21T00:11:06.260Z,1006.53
2018-12-21T00:12:06.273Z,1006.54
2018-12-21T00:13:59.222Z,1006.55
2018-12-21T00:14:59.258Z,1006.55
2018-12-21T00:16:52.200Z,1006.50
2018-12-21T00:17:52.221Z,1006.48
2018-12-21T00:19:45.167Z,1006.41
2018-12-21T00:20:45.196Z,1006.41
2018-12-21T00:22:38.150Z,1006.41
2018-12-21T00:23:38.167Z,1006.42
2018-12-21T00:25:31.124Z,1006.46
2018-12-21T00:26:31.142Z,1006.45
2018-12-21T00:28:24.082Z,1006.41
2018-12-21T00:29:24.111Z,1006.41
2018-12-21T00:31:17.955Z,1006.39
2018-12-21T00:32:17.088Z,1006.38
2018-12-21T00:34:10.029Z,1006.40
2018-12-21T00:35:10.057Z,1006.41
2018-12-21T00:37:03.010Z,1006.41
2018-12-21T00:38:03.030Z,1006.39
2018-12-21T00:39:55.977Z,1006.38
2018-12-21T00:40:56.006Z,1006.36
2018-12-21T00:42:48.955Z,1006.35
2018-12-21T00:43:48.975Z,1006.39
2018-12-21T00:45:41.928Z,1006.36
2018-12-21T00:46:41.949Z,1006.33
2018-12-21T00:48:34.891Z,1006.30
2018-12-21T00:49:34.917Z,1006.32
2018-12-21T00:51:30.265Z,1006.36
2018-12-21T00:52:27.894Z,1006.34
2018-12-21T00:54:20.837Z,1006.38
2018-12-21T00:55:20.864Z,1006.42
2018-12-21T00:57:13.817Z,1006.42
2018-12-21T00:58:13.837Z,1006.46
2018-12-21T01:00:06.781Z,1006.43
2018-12-21T01:01:06.827Z,1006.42
2018-12-21T01:02:59.759Z,1006.43
2018-12-21T01:03:59.781Z,1006.41
2018-12-21T01:05:53.014Z,1006.45
2018-12-21T01:06:52.756Z,1006.38
2018-12-21T01:08:45.700Z,1006.40
2018-12-21T01:09:45.726Z,1006.38
2018-12-21T01:11:38.679Z,1006.35
2018-12-21T01:12:38.704Z,1006.33
2018-12-21T01:14:31.640Z,1006.34
2018-12-21T01:15:31.670Z,1006.30
2018-12-21T01:17:24.621Z,1006.30
2018-12-21T01:18:24.641Z,1006.37
2018-12-21T01:20:17.586Z,1006.37
2018-12-21T01:21:17.619Z,1006.36
2018-12-21T01:23:10.571Z,1006.34
2018-12-21T01:24:10.587Z,1006.37
2018-12-21T01:26:03.542Z,1006.39
2018-12-21T01:27:03.559Z,1006.41
2018-12-21T01:28:56.509Z,1006.43
2018-12-21T01:29:56.531Z,1006.40
2018-12-21T01:31:49.484Z,1006.45
2018-12-21T01:32:49.503Z,1006.42
2018-12-21T01:34:42.446Z,1006.43
2018-12-21T01:35:42.474Z,1006.46
2018-12-21T01:37:35.423Z,1006.47
2018-12-21T01:38:35.470Z,1006.44
2018-12-21T01:40:28.389Z,1006.45
2018-12-21T01:41:28.418Z,1006.48
2018-12-21T01:43:21.373Z,1006.48
2018-12-21T01:44:21.399Z,1006.56
2018-12-21T01:46:14.336Z,1006.52
2018-12-21T01:47:14.365Z,1006.53
2018-12-21T01:49:07.316Z,1006.50
2018-12-21T01:50:07.340Z,1006.53
2018-12-21T01:52:00.293Z,1006.50
2018-12-21T01:53:00.312Z,1006.57
2018-12-21T01:54:53.258Z,1006.51
2018-12-21T01:55:53.285Z,1006.54
2018-12-21T01:57:46.239Z,1006.54
2018-12-21T01:58:46.257Z,1006.54
2018-12-21T02:00:39.201Z,1006.54
2018-12-21T02:01:39.233Z,1006.50
2018-12-21T02:03:32.187Z,1006.52
2018-12-21T02:04:32.210Z,1006.50
2018-12-21T02:06:25.148Z,1006.54
2018-12-21T02:07:25.174Z,1006.51
2018-12-21T02:09:18.134Z,1006.51
2018-12-21T02:10:18.153Z,1006.45
2018-12-21T02:12:11.105Z,1006.45
2018-12-21T02:13:11.121Z,1006.45
2018-12-21T02:15:04.081Z,1006.50
2018-12-21T02:16:04.094Z,1006.47
2018-12-21T02:17:57.047Z,1006.43
2018-12-21T02:18:57.065Z,1006.39
2018-12-21T02:20:50.012Z,1006.40
2018-12-21T02:21:55.881Z,1006.43
2018-12-21T02:23:42.987Z,1006.39
2018-12-21T02:24:43.008Z,1006.33
2018-12-21T02:26:35.953Z,1006.35
2018-12-21T02:27:35.978Z,1006.31
2018-12-21T02:29:28.934Z,1006.24
2018-12-21T02:30:28.951Z,1006.24
2018-12-21T02:32:21.894Z,1006.20
2018-12-21T02:33:21.919Z,1006.12
2018-12-21T02:35:14.881Z,1006.05
2018-12-21T02:36:14.902Z,1006.02
2018-12-21T02:38:07.857Z,1005.91
2018-12-21T02:39:07.872Z,1005.92
2018-12-21T02:41:00.814Z,1005.90
2018-12-21T02:42:00.842Z,1005.89
2018-12-21T02:43:53.793Z,1005.83
2018-12-21T02:44:53.812Z,1005.80
2018-12-21T02:46:46.756Z,1005.76
2018-12-21T02:47:46.782Z,1005.74
2018-12-21T02:49:39.784Z,1005.72
2018-12-21T02:50:39.806Z,1005.71
2018-12-21T02:52:32.741Z,1005.63
2018-12-21T02:53:32.767Z,1005.63
2018-12-21T02:55:25.724Z,1005.59
2018-12-21T02:56:25.744Z,1005.57
2018-12-21T02:58:18.697Z,1005.58
2018-12-21T02:59:18.719Z,1005.54
2018-12-21T03:01:11.664Z,1005.53
2018-12-21T03:02:11.689Z,1005.49
2018-12-21T03:04:04.637Z,1005.46
2018-12-21T03:05:04.659Z,1005.43
2018-12-21T03:06:57.606Z,1005.40
2018-12-21T03:07:57.626Z,1005.42
2018-12-21T03:09:50.579Z,1005.37
2018-12-21T03:10:50.602Z,1005.41
2018-12-21T03:12:43.544Z,1005.34
2018-12-21T03:13:43.572Z,1005.37
2018-12-21T03:15:36.521Z,1005.31
2018-12-21T03:16:36.541Z,1005.28
2018-12-21T03:18:29.498Z,1005.26
2018-12-21T03:19:29.512Z,1005.26
2018-12-21T03:21:22.456Z,1005.21
2018-12-21T03:22:22.484Z,1005.22
2018-12-21T03:24:15.438Z,1005.20
2018-12-21T03:25:15.459Z,1005.15
2018-12-21T03:27:08.400Z,1005.16
2018-12-21T03:28:08.426Z,1005.11
2018-12-21T03:30:01.382Z,1005.12
2018-12-21T03:31:01.402Z,1005.14
2018-12-21T03:32:54.343Z,1005.07
2018-12-21T03:33:54.481Z,1005.04
2018-12-21T03:35:47.331Z,1005.02
2018-12-21T03:36:47.349Z,1004.99
2018-12-21T03:38:40.317Z,1004.95
2018-12-21T03:39:40.323Z,1004.94
2018-12-21T03:41:33.265Z,1004.94
2018-12-21T03:42:33.291Z,1004.94
2018-12-21T03:44:26.252Z,1004.80
2018-12-21T03:45:26.261Z,1004.83
2018-12-21T03:47:19.212Z,1004.77
2018-12-21T03:48:19.240Z,1004.74
2018-12-21T03:50:12.193Z,1004.69
2018-12-21T03:51:12.215Z,1004.67
2018-12-21T03:53:05.155Z,1004.64
2018-12-21T03:54:05.179Z,1004.58
2018-12-21T03:55:58.138Z,1004.57
2018-12-21T03:56:58.163Z,1004.54
2018-12-21T03:58:51.110Z,1004.54
2018-12-21T03:59:51.133Z,1004.54
2018-12-21T04:01:44.074Z,1004.53
2018-12-21T04:02:44.103Z,1004.50
2018-12-21T04:04:37.052Z,1004.42
2018-12-21T04:05:37.071Z,1004.42
2018-12-21T04:07:30.015Z,1004.41
2018-12-21T04:08:30.046Z,1004.39
2018-12-21T04:10:22.997Z,1004.35
2018-12-21T04:11:23.014Z,1004.32
2018-12-21T04:13:15.960Z,1004.32
2018-12-21T04:14:15.989Z,1004.32
2018-12-21T04:16:08.942Z,1004.32
2018-12-21T04:17:08.959Z,1004.27
2018-12-21T04:19:01.917Z,1004.23
2018-12-21T04:20:01.929Z,1004.26
2018-12-21T04:21:54.874Z,1004.27
2018-12-21T04:22:54.901Z,1004.28
2018-12-21T04:24:47.857Z,1004.29
2018-12-21T04:25:47.873Z,1004.30
2018-12-21T04:27:40.816Z,1004.27
2018-12-21T04:28:40.845Z,1004.28
2018-12-21T04:30:33.797Z,1004.31
2018-12-21T04:31:33.821Z,1004.32
2018-12-21T04:33:26.762Z,1004.40
2018-12-21T04:34:26.791Z,1004.27
2018-12-21T04:36:19.743Z,1004.22
2018-12-21T04:37:19.763Z,1004.23
2018-12-21T04:39:12.713Z,1004.22
2018-12-21T04:40:12.736Z,1004.12
2018-12-21T04:42:05.679Z,1004.14
2018-12-21T04:43:05.707Z,1004.18
2018-12-21T04:44:58.660Z,1004.14
2018-12-21T04:45:58.678Z,1004.10
2018-12-21T04:47:51.626Z,1004.08
2018-12-21T04:48:51.658Z,1004.05
2018-12-21T04:50:44.618Z,1003.95
2018-12-21T04:51:44.628Z,1004.00
2018-12-21T04:53:37.574Z,1003.94
2018-12-21T04:54:37.600Z,1003.92
2018-12-21T04:56:30.556Z,1003.88
2018-12-21T04:57:30.571Z,1003.81
2018-12-21T04:59:23.523Z,1003.77
2018-12-21T05:00:23.539Z,1003.75
2018-12-21T05:02:16.490Z,1003.69
2018-12-21T05:03:16.516Z,1003.61
2018-12-21T05:05:09.467Z,1003.60
2018-12-21T05:06:09.488Z,1003.49
2018-12-21T05:08:02.426Z,1003.49
2018-12-21T05:09:02.459Z,1003.48
2018-12-21T05:10:55.409Z,1003.47
2018-12-21T05:11:55.433Z,1003.41
2018-12-21T05:13:48.385Z,1003.48
2018-12-21T05:14:48.410Z,1003.47
2018-12-21T05:16:41.356Z,1003.49
2018-12-21T05:17:41.376Z,1003.45
2018-12-21T05:19:34.333Z,1003.51
2018-12-21T05:20:34.352Z,1003.47
2018-12-21T05:22:27.296Z,1003.48
2018-12-21T05:23:27.324Z,1003.40
2018-12-21T05:25:20.274Z,1003.37
2018-12-21T05:26:20.298Z,1003.44
2018-12-21T05:28:13.241Z,1003.34
2018-12-21T05:29:13.270Z,1003.26
2018-12-21T05:31:06.218Z,1003.19
2018-12-21T05:32:06.234Z,1003.21
2018-12-21T05:33:59.184Z,1003.21
2018-12-21T05:34:59.212Z,1003.21
2018-12-21T05:36:52.159Z,1003.20
2018-12-21T05:37:52.181Z,1003.19
2018-12-21T05:39:45.135Z,1003.13
2018-12-21T05:40:45.154Z,1003.18
2018-12-21T05:42:38.095Z,1003.16
2018-12-21T05:43:38.127Z,1003.16
2018-12-21T05:45:31.079Z,1003.17
2018-12-21T05:46:31.099Z,1003.15
2018-12-21T05:48:24.041Z,1003.14
2018-12-21T05:49:24.072Z,1003.06
2018-12-21T05:51:17.024Z,1003.03
2018-12-21T05:52:17.041Z,1003.02
2018-12-21T05:54:09.990Z,1002.92
2018-12-21T05:55:10.019Z,1002.92
2018-12-21T05:57:02.967Z,1002.91
2018-12-21T05:58:02.985Z,1002.86
2018-12-21T05:59:55.938Z,1002.83
2018-12-21T06:00:55.956Z,1002.79
2018-12-21T06:02:48.901Z,1002.76
2018-12-21T06:03:48.931Z,1002.68
2018-12-21T06:05:41.880Z,1002.62
2018-12-21T06:06:41.903Z,1002.60
2018-12-21T06:08:34.847Z,1002.54
2018-12-21T06:09:34.875Z,1002.55
2018-12-21T06:11:27.830Z,1002.52
2018-12-21T06:12:27.850Z,1002.52
2018-12-21T06:14:20.799Z,1002.47
2018-12-21T06:15:20.825Z,1002.49
2018-12-21T06:17:13.776Z,1002.44
2018-12-21T06:18:13.795Z,1002.37
2018-12-21T06:20:06.753Z,1002.33
2018-12-21T06:21:06.770Z,1002.26
2018-12-21T06:22:59.714Z,1002.23
2018-12-21T06:23:59.741Z,1002.24
2018-12-21T06:25:52.696Z,1002.16
2018-12-21T06:26:52.716Z,1002.16
2018-12-21T06:28:45.666Z,1002.11
2018-12-21T06:29:45.688Z,1002.14
2018-12-21T06:31:38.641Z,1002.08
2018-12-21T06:32:40.097Z,1002.06
2018-12-21T06:34:31.606Z,1002.03
2018-12-21T06:35:31.635Z,1002.07
2018-12-21T06:37:25.088Z,1002.07
2018-12-21T06:38:25.109Z,1002.07
2018-12-21T06:40:18.059Z,1002.04
2018-12-21T06:41:18.080Z,1002.08
2018-12-21T06:43:11.042Z,1002.00
2018-12-21T06:44:11.071Z,1001.97
2018-12-21T06:46:04.024Z,1001.93
2018-12-21T06:47:04.043Z,1001.93
2018-12-21T06:48:56.992Z,1001.85
2018-12-21T06:49:57.020Z,1001.80
2018-12-21T06:51:49.975Z,1001.69
2018-12-21T06:52:49.996Z,1001.69
2018-12-21T06:54:42.936Z,1001.63
2018-12-21T06:55:42.966Z,1001.68
2018-12-21T06:57:35.920Z,1001.68
2018-12-21T06:58:35.935Z,1001.63
2018-12-21T07:00:28.903Z,1001.49
2018-12-21T07:01:28.911Z,1001.53
2018-12-21T07:03:21.854Z,1001.48
2018-12-21T07:04:21.883Z,1001.47
2018-12-21T07:06:14.911Z,1001.52
2018-12-21T07:07:14.859Z,1001.50
2018-12-21T07:09:07.801Z,1001.48
2018-12-21T07:10:07.829Z,1001.48
2018-12-21T07:12:00.787Z,1001.47
2018-12-21T07:13:00.799Z,1001.40
2018-12-21T07:14:53.779Z,1001.35
2018-12-21T07:15:53.806Z,1001.29
2018-12-21T07:17:46.754Z,1001.21
2018-12-21T07:18:46.777Z,1001.26
2018-12-21T07:20:40.225Z,1001.19
2018-12-21T07:21:40.253Z,1001.18
2018-12-21T07:23:33.208Z,1001.20
2018-12-21T07:24:33.231Z,1001.20
2018-12-21T07:26:26.184Z,1001.17
2018-12-21T07:27:26.202Z,1001.13
2018-12-21T07:29:20.752Z,1001.15
2018-12-21T07:30:19.179Z,1001.06
2018-12-21T07:32:12.133Z,1001.02
2018-12-21T07:33:12.152Z,1000.96
2018-12-21T07:35:05.095Z,1000.96
2018-12-21T07:36:08.543Z,1000.95
2018-12-21T07:37:58.079Z,1000.89
2018-12-21T07:38:58.095Z,1000.88
2018-12-21T07:40:51.042Z,1000.82
2018-12-21T07:41:51.070Z,1000.88
2018-12-21T07:43:44.020Z,1000.81
2018-12-21T07:44:44.045Z,1000.85
2018-12-21T07:46:36.997Z,1000.84
2018-12-21T07:47:37.012Z,1000.81
2018-12-21T07:49:30.465Z,1000.86
2018-12-21T07:50:30.491Z,1000.84
2018-12-21T07:52:23.447Z,1000.82
2018-12-21T07:53:23.466Z,1000.77
2018-12-21T07:55:16.420Z,1000.77
2018-12-21T07:56:16.443Z,1000.75
2018-12-21T07:58:09.396Z,1000.73
2018-12-21T07:59:09.417Z,1000.74
2018-12-21T08:01:02.456Z,1000.64
2018-12-21T08:02:02.395Z,1000.64
2018-12-21T08:03:55.356Z,1000.58
2018-12-21T08:04:55.378Z,1000.61
2018-12-21T08:06:48.328Z,1000.55
2018-12-21T08:07:48.346Z,1000.59
2018-12-21T08:09:41.295Z,1000.59
2018-12-21T08:10:41.324Z,1000.55
2018-12-21T08:12:34.273Z,1000.51
2018-12-21T08:13:34.297Z,1000.49
2018-12-21T08:15:27.354Z,1000.51
2018-12-21T08:16:27.271Z,1000.41
2018-12-21T08:18:20.228Z,1000.41
2018-12-21T08:19:20.247Z,1000.41
2018-12-21T08:21:13.192Z,1000.35
2018-12-21T08:22:13.223Z,1000.28
2018-12-21T08:24:06.177Z,1000.27
2018-12-21T08:25:06.196Z,1000.30
2018-12-21T08:26:59.143Z,1000.19
2018-12-21T08:27:59.172Z,1000.21
2018-12-21T08:29:52.131Z,1000.19
2018-12-21T08:30:52.148Z,1000.13
2018-12-21T08:32:45.599Z,1000.10
2018-12-21T08:33:45.622Z,1000.03
2018-12-21T08:35:38.567Z,999.94
2018-12-21T08:36:39.372Z,999.97
2018-12-21T08:38:31.545Z,999.90
2018-12-21T08:39:31.566Z,999.91
2018-12-21T08:41:24.514Z,999.87
2018-12-21T08:42:24.542Z,999.88
2018-12-21T08:44:17.492Z,999.84
2018-12-21T08:45:17.512Z,999.83
2018-12-21T08:47:10.458Z,999.80
2018-12-21T08:48:10.484Z,999.77
2018-12-21T08:50:03.438Z,999.74
2018-12-21T08:51:03.461Z,999.73
2018-12-21T08:52:56.414Z,999.67
2018-12-21T08:53:56.435Z,999.63
2018-12-21T08:55:49.383Z,999.59
2018-12-21T08:56:49.412Z,999.54
2018-12-21T08:58:42.363Z,999.51
2018-12-21T08:59:42.386Z,999.44
2018-12-21T09:01:35.335Z,999.44
2018-12-21T09:02:35.363Z,999.40
2018-12-21T09:04:32.229Z,999.36
2018-12-21T09:05:28.338Z,999.36
2018-12-21T09:07:21.293Z,999.35
2018-12-21T09:08:21.314Z,999.37
2018-12-21T09:10:14.272Z,999.27
2018-12-21T09:11:14.297Z,999.24
2018-12-21T09:13:07.246Z,999.17
2018-12-21T09:14:07.345Z,999.12
2018-12-21T09:16:00.213Z,999.15
2018-12-21T09:17:00.243Z,999.12
2018-12-21T09:18:53.198Z,999.15
2018-12-21T09:19:53.224Z,999.11
2018-12-21T09:21:46.163Z,999.08
2018-12-21T09:22:46.193Z,999.09
2018-12-21T09:24:39.145Z,999.07
2018-12-21T09:25:39.170Z,999.05
2018-12-21T09:27:32.115Z,998.98
2018-12-21T09:28:32.141Z,998.93
2018-12-21T09:30:25.590Z,998.86
2018-12-21T09:31:25.612Z,998.79
2018-12-21T09:33:18.567Z,998.71
2018-12-21T09:34:18.588Z,998.66
2018-12-21T09:36:11.542Z,998.63
2018-12-21T09:37:11.564Z,998.57
2018-12-21T09:39:04.519Z,998.52
2018-12-21T09:40:04.538Z,998.46
2018-12-21T09:41:57.484Z,998.43
2018-12-21T09:42:57.514Z,998.39
2018-12-21T09:44:52.651Z,998.26
2018-12-21T09:45:50.488Z,998.25
2018-12-21T09:47:43.435Z,998.30
2018-12-21T09:48:43.467Z,998.26
2018-12-21T09:50:36.417Z,998.24
2018-12-21T09:51:36.440Z,998.20
2018-12-21T09:53:29.383Z,998.11
2018-12-21T09:54:29.414Z,998.08
2018-12-21T09:56:22.864Z,998.04
2018-12-21T09:57:22.879Z,998.00
2018-12-21T09:59:15.832Z,997.96
2018-12-21T10:00:15.849Z,997.94
2018-12-21T10:02:08.845Z,997.80
2018-12-21T10:03:08.824Z,997.78
2018-12-21T10:05:01.778Z,997.71
2018-12-21T10:06:01.799Z,997.64
2018-12-21T10:07:54.745Z,997.62
2018-12-21T10:08:54.774Z,997.43
2018-12-21T10:10:47.722Z,997.41
2018-12-21T10:11:47.747Z,997.40
2018-12-21T10:13:40.693Z,997.26
2018-12-21T10:14:40.720Z,997.24
2018-12-21T10:16:33.675Z,997.10
2018-12-21T10:17:33.697Z,996.95
2018-12-21T10:19:26.651Z,996.92
2018-12-21T10:20:26.670Z,996.87
2018-12-21T10:22:19.615Z,996.78
2018-12-21T10:23:19.645Z,996.73
2018-12-21T10:25:12.627Z,996.72
2018-12-21T10:26:12.639Z,996.65
2018-12-21T10:28:05.564Z,996.58
2018-12-21T10:29:05.595Z,996.58
2018-12-21T10:30:58.549Z,996.51
2018-12-21T10:31:58.571Z,996.46
2018-12-21T10:33:51.517Z,996.33
2018-12-21T10:34:51.546Z,996.36
2018-12-21T10:36:44.499Z,996.29
2018-12-21T10:37:44.522Z,996.27
2018-12-21T10:39:37.473Z,996.27
2018-12-21T10:40:37.498Z,996.24
2018-12-21T10:42:30.446Z,996.17
2018-12-21T10:43:30.474Z,996.14
2018-12-21T10:45:23.430Z,996.02
2018-12-21T10:46:23.450Z,996.03
2018-12-21T10:48:16.397Z,995.99
2018-12-21T10:49:16.423Z,995.93
2018-12-21T10:51:09.381Z,995.91
2018-12-21T10:52:09.398Z,995.90
2018-12-21T10:54:02.357Z,995.91
2018-12-21T10:55:02.384Z,995.89
2018-12-21T10:56:55.335Z,995.77
2018-12-21T10:57:55.356Z,995.81
2018-12-21T10:59:48.310Z,995.68
2018-12-21T11:00:48.330Z,995.61
2018-12-21T11:02:41.290Z,995.52
2018-12-21T11:03:41.319Z,995.52
2018-12-21T11:05:34.271Z,995.46
2018-12-21T11:06:34.291Z,995.40
2018-12-21T11:08:27.237Z,995.44
2018-12-21T11:09:27.265Z,995.40
2018-12-21T11:11:20.220Z,995.41
2018-12-21T11:12:20.240Z,995.37
2018-12-21T11:14:13.187Z,995.27
2018-12-21T11:15:13.217Z,995.24
2018-12-21T11:17:06.180Z,995.13
2018-12-21T11:18:06.193Z,995.09
2018-12-21T11:19:59.164Z,995.04
2018-12-21T11:20:59.169Z,994.97
2018-12-21T11:22:52.118Z,994.95
2018-12-21T11:23:52.146Z,995.00
2018-12-21T11:25:45.100Z,994.93
2018-12-21T11:26:45.120Z,994.88
2018-12-21T11:28:38.067Z,994.92
2018-12-21T11:29:38.093Z,994.86
2018-12-21T11:31:31.051Z,994.77
2018-12-21T11:32:31.072Z,994.73
2018-12-21T11:34:24.020Z,994.63
2018-12-21T11:35:24.049Z,994.64
2018-12-21T11:37:17.002Z,994.51
2018-12-21T11:38:17.021Z,994.55
2018-12-21T11:40:09.991Z,994.45
2018-12-21T11:41:09.999Z,994.41
2018-12-21T11:43:02.943Z,994.33
2018-12-21T11:44:02.972Z,994.28
2018-12-21T11:45:55.924Z,994.27
2018-12-21T11:46:55.944Z,994.20
2018-12-21T11:48:48.893Z,994.16
2018-12-21T11:49:48.922Z,994.11
2018-12-21T11:51:42.367Z,994.08
2018-12-21T11:52:42.386Z,994.05
2018-12-21T11:54:43.970Z,994.04
2018-12-21T11:55:35.363Z,994.03
2018-12-21T11:57:28.315Z,994.05
2018-12-21T11:58:28.338Z,994.05
2018-12-21T12:00:21.284Z,993.91
2018-12-21T12:01:21.316Z,993.92
2018-12-21T12:03:14.268Z,993.90
2018-12-21T12:04:14.288Z,993.93
2018-12-21T12:06:07.254Z,993.87
2018-12-21T12:07:07.271Z,993.82
2018-12-21T12:09:06.184Z,993.73
2018-12-21T12:10:00.297Z,993.73
2018-12-21T12:11:53.198Z,993.75
2018-12-21T12:12:53.221Z,993.67
2018-12-21T12:14:46.164Z,993.52
2018-12-21T12:15:46.195Z,993.45
2018-12-21T12:17:39.160Z,993.35
2018-12-21T12:18:39.183Z,993.29
2018-12-21T12:20:32.131Z,993.38
2018-12-21T12:21:32.157Z,993.36
2018-12-21T12:23:25.107Z,993.23
2018-12-21T12:24:25.127Z,993.18
2018-12-21T12:26:18.090Z,993.15
2018-12-21T12:27:18.114Z,993.14
2018-12-21T12:29:11.060Z,993.18
2018-12-21T12:30:11.092Z,993.21
2018-12-21T12:32:04.060Z,993.20
2018-12-21T12:33:04.068Z,993.16
2018-12-21T12:34:57.009Z,993.10
2018-12-21T12:35:57.039Z,993.04
2018-12-21T12:37:50.013Z,992.95
2018-12-21T12:38:50.030Z,992.97
2018-12-21T12:40:42.981Z,992.93
2018-12-21T12:41:43.007Z,992.89
2018-12-21T12:43:35.957Z,993.00
2018-12-21T12:44:35.980Z,992.94
2018-12-21T12:46:29.423Z,992.92
2018-12-21T12:47:29.445Z,992.87
2018-12-21T12:49:22.390Z,992.80
2018-12-21T12:50:22.422Z,992.78
2018-12-21T12:52:15.372Z,992.76
2018-12-21T12:53:15.394Z,992.76
2018-12-21T12:55:08.340Z,992.71
2018-12-21T12:56:08.370Z,992.74
2018-12-21T12:58:01.325Z,992.60
2018-12-21T12:59:01.347Z,992.59
2018-12-21T13:00:54.296Z,992.48
2018-12-21T13:01:54.320Z,992.47
2018-12-21T13:03:47.397Z,992.49
2018-12-21T13:04:47.297Z,992.47
2018-12-21T13:06:40.241Z,992.45
2018-12-21T13:07:40.269Z,992.42
2018-12-21T13:09:33.225Z,992.35
2018-12-21T13:10:33.246Z,992.37
2018-12-21T13:12:26.201Z,992.33
2018-12-21T13:13:26.221Z,992.30
2018-12-21T13:15:19.169Z,992.21
2018-12-21T13:16:19.198Z,992.20
2018-12-21T13:18:12.150Z,992.19
2018-12-21T13:19:12.176Z,992.20
2018-12-21T13:21:05.120Z,992.19
2018-12-21T13:22:05.149Z,992.22
2018-12-21T13:23:58.105Z,992.02
2018-12-21T13:24:58.126Z,991.99
2018-12-21T13:26:51.073Z,992.02
2018-12-21T13:27:51.103Z,992.02
2018-12-21T13:29:44.057Z,992.01
2018-12-21T13:30:44.079Z,992.06
2018-12-21T13:32:37.022Z,992.02
2018-12-21T13:33:37.054Z,992.02
2018-12-21T13:35:30.008Z,991.93
2018-12-21T13:36:30.029Z,991.88
2018-12-21T13:38:22.984Z,991.91
2018-12-21T13:39:23.004Z,991.92
2018-12-21T13:41:15.948Z,991.88
2018-12-21T13:42:15.979Z,991.89
2018-12-21T13:44:08.932Z,991.86
2018-12-21T13:45:08.953Z,991.82
2018-12-21T13:47:01.901Z,991.77
2018-12-21T13:48:01.928Z,991.77
2018-12-21T13:49:54.883Z,991.76
2018-12-21T13:50:54.905Z,991.77
2018-12-21T13:52:47.863Z,991.77
2018-12-21T13:53:47.885Z,991.73
2018-12-21T13:55:40.829Z,991.82
2018-12-21T13:56:43.014Z,991.83
2018-12-21T13:58:33.809Z,991.79
2018-12-21T13:59:33.834Z,991.79
2018-12-21T14:01:26.781Z,991.82
2018-12-21T14:02:26.810Z,991.75
2018-12-21T14:04:19.771Z,991.75
2018-12-21T14:05:19.794Z,991.75
2018-12-21T14:07:12.736Z,991.73
2018-12-21T14:08:12.766Z,991.71
2018-12-21T14:10:05.723Z,991.72
2018-12-21T14:11:05.741Z,991.68
2018-12-21T14:12:58.687Z,991.68
2018-12-21T14:13:58.719Z,991.69
2018-12-21T14:15:51.678Z,991.65
2018-12-21T14:16:51.699Z,991.67
2018-12-21T14:18:44.650Z,991.65
2018-12-21T14:19:44.670Z,991.62
2018-12-21T14:21:37.617Z,991.71
2018-12-21T14:22:37.650Z,991.66
2018-12-21T14:24:30.596Z,991.67
2018-12-21T14:25:30.619Z,991.70
2018-12-21T14:27:24.080Z,991.68
2018-12-21T14:28:24.103Z,991.69
2018-12-21T14:30:17.551Z,991.73
2018-12-21T14:31:17.566Z,991.70
2018-12-21T14:33:11.015Z,991.69
2018-12-21T14:34:11.047Z,991.73
2018-12-21T14:36:04.489Z,991.73
2018-12-21T14:37:04.512Z,991.73
2018-12-21T14:38:57.961Z,991.71
2018-12-21T14:39:57.980Z,991.71
2018-12-21T14:41:51.422Z,991.74
2018-12-21T14:42:51.445Z,991.74
2018-12-21T14:44:44.900Z,991.77
2018-12-21T14:45:44.921Z,991.78
2018-12-21T14:47:38.374Z,991.89
2018-12-21T14:48:38.405Z,991.88
2018-12-21T14:50:31.853Z,991.86
2018-12-21T14:51:31.875Z,991.81
2018-12-21T14:53:25.324Z,991.86
2018-12-21T14:54:25.356Z,991.86
2018-12-21T14:56:18.811Z,991.85
2018-12-21T14:57:18.831Z,991.88
2018-12-21T14:59:12.309Z,991.85
2018-12-21T15:00:12.312Z,991.87
2018-12-21T15:02:05.757Z,991.78
2018-12-21T15:03:05.786Z,991.80
2018-12-21T15:04:59.244Z,991.85
2018-12-21T15:05:59.264Z,991.87
2018-12-21T15:07:52.713Z,991.83
2018-12-21T15:08:52.733Z,991.88
2018-12-21T15:10:45.687Z,991.90
2018-12-21T15:11:45.708Z,991.91
2018-12-21T15:13:39.153Z,991.90
2018-12-21T15:14:39.196Z,991.85
2018-12-21T15:16:32.657Z,991.82
2018-12-21T15:17:32.678Z,991.90
2018-12-21T15:19:26.131Z,991.82
2018-12-21T15:20:26.157Z,991.76
2018-12-21T15:22:19.592Z,991.76
2018-12-21T15:23:19.623Z,991.77
2018-12-21T15:25:13.069Z,991.74
2018-12-21T15:26:13.092Z,991.75
2018-12-21T15:28:06.530Z,991.74
2018-12-21T15:29:06.562Z,991.83
2018-12-21T15:31:00.023Z,991.92
2018-12-21T15:32:00.042Z,991.87
2018-12-21T15:33:53.483Z,991.97
2018-12-21T15:34:53.512Z,991.88
2018-12-21T15:36:46.956Z,991.87
2018-12-21T15:37:46.978Z,991.89
2018-12-21T15:39:40.427Z,991.91
2018-12-21T15:40:40.455Z,991.87
2018-12-21T15:42:33.921Z,991.98
2018-12-21T15:43:33.942Z,991.91
2018-12-21T15:45:26.915Z,991.94
2018-12-21T15:46:26.940Z,992.00
2018-12-21T15:48:19.888Z,992.02
2018-12-21T15:49:19.920Z,991.97
2018-12-21T15:51:13.371Z,992.00
2018-12-21T15:52:13.395Z,992.06
2018-12-21T15:54:06.831Z,992.03
2018-12-21T15:55:06.861Z,992.08
2018-12-21T15:57:00.312Z,992.06
2018-12-21T15:58:00.328Z,992.03
2018-12-21T15:59:53.775Z,992.04
2018-12-21T16:00:53.802Z,992.12
2018-12-21T16:02:47.247Z,992.07
2018-12-21T16:03:47.275Z,992.03
2018-12-21T16:05:40.223Z,992.06
2018-12-21T16:06:40.244Z,992.01
2018-12-21T16:08:33.187Z,992.04
2018-12-21T16:09:33.220Z,992.10
2018-12-21T16:11:26.683Z,992.06
2018-12-21T16:12:26.710Z,992.22
2018-12-21T16:14:19.643Z,992.16
2018-12-21T16:15:19.678Z,992.09
2018-12-21T16:17:13.118Z,992.15
2018-12-21T16:18:13.141Z,992.14
2018-12-21T16:20:06.585Z,992.14
2018-12-21T16:21:06.616Z,992.10
2018-12-21T16:22:59.555Z,992.15
2018-12-21T16:24:06.824Z,992.17
2018-12-21T16:25:53.035Z,992.20
2018-12-21T16:26:53.051Z,992.14
2018-12-21T16:28:46.500Z,992.20
2018-12-21T16:29:46.530Z,992.17
2018-12-21T16:31:39.998Z,992.22
2018-12-21T16:32:40.019Z,992.13
2018-12-21T16:34:33.460Z,992.18
2018-12-21T16:35:33.487Z,992.18
2018-12-21T16:37:26.944Z,992.14
2018-12-21T16:38:26.962Z,992.22
2018-12-21T16:40:20.402Z,992.27
2018-12-21T16:41:20.431Z,992.35
2018-12-21T16:43:13.875Z,992.39
2018-12-21T16:44:13.896Z,992.32
2018-12-21T16:46:07.354Z,992.35
2018-12-21T16:47:07.375Z,992.26
2018-12-21T16:49:00.316Z,992.47
2018-12-21T16:50:00.340Z,992.47
2018-12-21T16:51:53.805Z,992.41
2018-12-21T16:52:53.826Z,992.47
2018-12-21T16:54:47.270Z,992.57
2018-12-21T16:55:47.296Z,992.61
2018-12-21T16:57:40.742Z,992.82
2018-12-21T16:58:40.765Z,992.64
2018-12-21T17:00:34.203Z,992.57
2018-12-21T17:01:34.232Z,992.62
2018-12-21T17:03:27.185Z,992.74
2018-12-21T17:04:27.207Z,992.90
2018-12-21T17:06:20.162Z,992.77
2018-12-21T17:07:20.184Z,992.91
2018-12-21T17:09:13.137Z,992.74
2018-12-21T17:10:13.164Z,992.86
2018-12-21T17:12:06.123Z,992.64
2018-12-21T17:13:06.141Z,992.68
2018-12-21T17:14:59.087Z,992.75
2018-12-21T17:15:59.117Z,992.76
2018-12-21T17:17:52.077Z,992.65
2018-12-21T17:18:52.095Z,992.63
2018-12-21T17:20:45.540Z,992.57
2018-12-21T17:21:45.566Z,992.57
2018-12-21T17:23:39.019Z,992.64
2018-12-21T17:24:39.048Z,992.52
2018-12-21T17:26:31.997Z,992.60
2018-12-21T17:27:32.016Z,992.43
2018-12-21T17:29:24.960Z,992.63
2018-12-21T17:30:24.989Z,992.52
2018-12-21T17:32:18.441Z,992.52
2018-12-21T17:33:18.464Z,992.68
2018-12-21T17:35:11.408Z,992.59
2018-12-21T17:36:11.438Z,992.59
2018-12-21T17:38:04.895Z,992.70
2018-12-21T17:39:04.916Z,992.65
2018-12-21T17:40:57.869Z,992.78
2018-12-21T17:41:57.894Z,992.75
2018-12-21T17:43:50.859Z,992.90